Time,TemperatureF,DewpointF,PressureIn,WindDirection,WindDirectionDegrees,WindSpeedMPH,WindSpeedGustMPH,Humidity,HourlyPrecipIn,Conditions,Clouds,dailyrainin,SolarRadiationWatts/m^2,SoftwareType,DateUTC
2013-03-21 00:03:00,48.0,25.0,-100.00,NNW,338,3.0,5.0,40,0.00,,,0.00,0.000000,,2013-03-21 05:03:00,
2013-03-21 00:33:00,46.0,26.0,-100.00,NNW,337,2.0,4.0,46,0.00,,,0.00,0.000000,,2013-03-21 05:33:00,
2013-03-21 00:44:00,46.0,26.0,-100.00,NNW,337,2.0,4.0,46,0.00,,,0.00,0.000000,,2013-03-21 05:44:00,
2013-03-21 00:52:00,46.0,26.0,-100.00,NNW,337,2.0,4.0,46,0.00,,,0.00,0.000000,,2013-03-21 05:52:00,
2013-03-21 01:03:00,46.0,26.0,-100.00,NNW,337,2.0,4.0,46,0.00,,,0.00,0.000000,,2013-03-21 06:03:00,
2013-03-21 01:32:00,44.0,27.0,-100.00,NNE,23,0.0,5.0,51,0.00,,,0.00,0.000000,,2013-03-21 06:32:00,
2013-03-21 01:42:00,44.0,27.0,-100.00,NNE,23,0.0,5.0,51,0.00,,,0.00,0.000000,,2013-03-21 06:42:00,
2013-03-21 01:52:00,44.0,27.0,-100.00,NNE,23,0.0,5.0,51,0.00,,,0.00,0.000000,,2013-03-21 06:52:00,
2013-03-21 02:02:00,44.0,27.0,-100.00,NNE,23,0.0,5.0,51,0.00,,,0.00,0.000000,,2013-03-21 07:02:00,
2013-03-21 02:32:00,42.0,33.0,-100.00,WSW,240,0.0,2.0,70,0.00,,,0.00,0.000000,,2013-03-21 07:32:00,
2013-03-21 02:43:00,42.0,33.0,-100.00,WSW,240,0.0,2.0,70,0.00,,,0.00,0.000000,,2013-03-21 07:43:00,
2013-03-21 02:52:00,42.0,33.0,-100.00,WSW,240,0.0,2.0,70,0.00,,,0.00,0.000000,,2013-03-21 07:52:00,
2013-03-21 03:02:00,42.0,33.0,-100.00,WSW,240,0.0,2.0,70,0.00,,,0.00,0.000000,,2013-03-21 08:02:00,
2013-03-21 03:33:00,41.0,33.0,-100.00,SW,214,0.0,0.0,74,0.00,,,0.00,0.000000,,2013-03-21 08:33:00,
2013-03-21 03:43:00,41.0,33.0,-100.00,SW,214,0.0,0.0,74,0.00,,,0.00,0.000000,,2013-03-21 08:43:00,
2013-03-21 03:52:00,41.0,33.0,-100.00,SW,214,0.0,0.0,74,0.00,,,0.00,0.000000,,2013-03-21 08:52:00,
2013-03-21 04:02:00,41.0,33.0,-100.00,SW,214,0.0,0.0,74,0.00,,,0.00,0.000000,,2013-03-21 09:02:00,
2013-03-21 04:33:00,42.0,30.0,-100.00,ENE,63,0.0,3.0,63,0.00,,,0.00,0.000000,,2013-03-21 09:33:00,
2013-03-21 04:43:00,42.0,30.0,-100.00,ENE,63,0.0,3.0,63,0.00,,,0.00,0.000000,,2013-03-21 09:43:00,
2013-03-21 04:53:00,42.0,30.0,-100.00,ENE,63,0.0,3.0,63,0.00,,,0.00,0.000000,,2013-03-21 09:53:00,
2013-03-21 05:03:00,42.0,30.0,-100.00,ENE,63,0.0,3.0,63,0.00,,,0.00,0.000000,,2013-03-21 10:03:00,
2013-03-21 05:34:00,41.0,30.0,-100.00,NNE,17,1.0,3.0,64,0.00,,,0.00,0.000000,,2013-03-21 10:34:00,
2013-03-21 05:43:00,41.0,30.0,-100.00,NNE,17,1.0,3.0,64,0.00,,,0.00,0.000000,,2013-03-21 10:43:00,
2013-03-21 05:53:00,41.0,30.0,-100.00,NNE,17,1.0,3.0,64,0.00,,,0.00,0.000000,,2013-03-21 10:53:00,
2013-03-21 06:03:00,41.0,30.0,-100.00,NNE,17,1.0,3.0,64,0.00,,,0.00,0.000000,,2013-03-21 11:03:00,
2013-03-21 06:33:00,41.0,34.0,-100.00,NNE,12,1.0,2.0,76,0.00,,,0.00,0.000000,,2013-03-21 11:33:00,
2013-03-21 06:43:00,41.0,34.0,-100.00,NNE,12,1.0,2.0,76,0.00,,,0.00,0.000000,,2013-03-21 11:43:00,
2013-03-21 06:53:00,41.0,34.0,-100.00,NNE,12,1.0,2.0,76,0.00,,,0.00,0.000000,,2013-03-21 11:53:00,
2013-03-21 07:02:00,41.0,34.0,-100.00,NNE,12,1.0,2.0,76,0.00,,,0.00,0.000000,,2013-03-21 12:02:00,
2013-03-21 07:33:00,40.0,33.0,-100.00,NE,42,0.0,3.0,75,0.00,,,0.00,1.000000,,2013-03-21 12:33:00,
2013-03-21 07:43:00,40.0,33.0,-100.00,NE,42,0.0,3.0,75,0.00,,,0.00,1.000000,,2013-03-21 12:43:00,
2013-03-21 07:53:00,40.0,33.0,-100.00,NE,42,0.0,3.0,75,0.00,,,0.00,1.000000,,2013-03-21 12:53:00,
2013-03-21 08:02:00,40.0,33.0,-100.00,NE,42,0.0,3.0,75,0.00,,,0.00,1.000000,,2013-03-21 13:02:00,
2013-03-21 08:33:00,44.0,33.0,-100.00,NE,44,4.0,5.0,66,0.00,,,0.00,52.000000,,2013-03-21 13:33:00,
2013-03-21 08:43:00,44.0,33.0,-100.00,NE,44,4.0,5.0,66,0.00,,,0.00,52.000000,,2013-03-21 13:43:00,
2013-03-21 08:52:00,44.0,33.0,-100.00,NE,44,4.0,5.0,66,0.00,,,0.00,52.000000,,2013-03-21 13:52:00,
2013-03-21 09:02:00,44.0,33.0,-100.00,NE,44,4.0,5.0,66,0.00,,,0.00,52.000000,,2013-03-21 14:02:00,
2013-03-21 09:32:00,46.0,27.0,-100.00,NE,48,6.0,11.0,48,0.00,,,0.00,179.000000,,2013-03-21 14:32:00,
2013-03-21 09:43:00,46.0,27.0,-100.00,NE,48,6.0,11.0,48,0.00,,,0.00,179.000000,,2013-03-21 14:43:00,
2013-03-21 09:52:00,46.0,27.0,-100.00,NE,48,6.0,11.0,48,0.00,,,0.00,179.000000,,2013-03-21 14:52:00,
2013-03-21 10:03:00,46.0,27.0,-100.00,NE,48,6.0,11.0,48,0.00,,,0.00,179.000000,,2013-03-21 15:03:00,
2013-03-21 10:33:00,51.0,21.0,-100.00,ENE,76,7.0,12.0,30,0.00,,,0.00,315.000000,,2013-03-21 15:33:00,
2013-03-21 10:43:00,51.0,21.0,-100.00,ENE,76,7.0,12.0,30,0.00,,,0.00,315.000000,,2013-03-21 15:43:00,
2013-03-21 10:53:00,51.0,21.0,-100.00,ENE,76,7.0,12.0,30,0.00,,,0.00,315.000000,,2013-03-21 15:53:00,
2013-03-21 11:03:00,51.0,21.0,-100.00,ENE,76,7.0,12.0,30,0.00,,,0.00,315.000000,,2013-03-21 16:03:00,
2013-03-21 11:33:00,53.0,22.0,-100.00,ENE,58,4.0,11.0,29,0.00,,,0.00,416.000000,,2013-03-21 16:33:00,
2013-03-21 11:42:00,53.0,22.0,-100.00,ENE,58,4.0,11.0,29,0.00,,,0.00,416.000000,,2013-03-21 16:42:00,
2013-03-21 11:53:00,53.0,22.0,-100.00,ENE,58,4.0,11.0,29,0.00,,,0.00,416.000000,,2013-03-21 16:53:00,
2013-03-21 12:02:00,53.0,22.0,-100.00,ENE,58,4.0,11.0,29,0.00,,,0.00,416.000000,,2013-03-21 17:02:00,
2013-03-21 12:33:00,56.0,25.0,-100.00,ENE,61,2.0,8.0,30,0.00,,,0.00,386.000000,,2013-03-21 17:33:00,
2013-03-21 12:43:00,56.0,25.0,-100.00,ENE,61,2.0,8.0,30,0.00,,,0.00,386.000000,,2013-03-21 17:43:00,
2013-03-21 12:53:00,56.0,25.0,-100.00,ENE,61,2.0,8.0,30,0.00,,,0.00,386.000000,,2013-03-21 17:53:00,
2013-03-21 13:02:00,56.0,25.0,-100.00,ENE,61,2.0,8.0,30,0.00,,,0.00,386.000000,,2013-03-21 18:02:00,
2013-03-21 13:32:00,59.0,27.0,-100.00,East,100,3.0,9.0,29,0.00,,,0.00,457.000000,,2013-03-21 18:32:00,
2013-03-21 13:43:00,59.0,27.0,-100.00,East,100,3.0,9.0,29,0.00,,,0.00,457.000000,,2013-03-21 18:43:00,
2013-03-21 13:52:00,59.0,27.0,-100.00,East,100,3.0,9.0,29,0.00,,,0.00,457.000000,,2013-03-21 18:52:00,
2013-03-21 14:02:00,59.0,27.0,-100.00,East,100,3.0,9.0,29,0.00,,,0.00,457.000000,,2013-03-21 19:02:00,
2013-03-21 14:32:00,62.0,28.0,-100.00,ESE,105,5.0,9.0,27,0.00,,,0.00,592.000000,,2013-03-21 19:32:00,
2013-03-21 14:43:00,62.0,28.0,-100.00,ESE,105,5.0,9.0,27,0.00,,,0.00,592.000000,,2013-03-21 19:43:00,
2013-03-21 14:53:00,62.0,28.0,-100.00,ESE,105,5.0,9.0,27,0.00,,,0.00,592.000000,,2013-03-21 19:53:00,
2013-03-21 15:02:00,62.0,28.0,-100.00,ESE,105,5.0,9.0,27,0.00,,,0.00,592.000000,,2013-03-21 20:02:00,
2013-03-21 15:33:00,63.0,28.0,-100.00,East,93,4.0,10.0,26,0.00,,,0.00,573.000000,,2013-03-21 20:33:00,
2013-03-21 15:42:00,63.0,28.0,-100.00,East,93,4.0,10.0,26,0.00,,,0.00,573.000000,,2013-03-21 20:42:00,
2013-03-21 15:53:00,63.0,28.0,-100.00,East,93,4.0,10.0,26,0.00,,,0.00,573.000000,,2013-03-21 20:53:00,
2013-03-21 16:02:00,63.0,28.0,-100.00,East,93,4.0,10.0,26,0.00,,,0.00,573.000000,,2013-03-21 21:02:00,
2013-03-21 16:33:00,64.0,27.0,-100.00,East,98,3.0,7.0,25,0.00,,,0.00,360.000000,,2013-03-21 21:33:00,
2013-03-21 16:43:00,64.0,27.0,-100.00,East,98,3.0,7.0,25,0.00,,,0.00,360.000000,,2013-03-21 21:43:00,
2013-03-21 16:53:00,64.0,27.0,-100.00,East,98,3.0,7.0,25,0.00,,,0.00,360.000000,,2013-03-21 21:53:00,
2013-03-21 17:03:00,64.0,27.0,-100.00,East,98,3.0,7.0,25,0.00,,,0.00,360.000000,,2013-03-21 22:03:00,
2013-03-21 17:34:00,65.0,29.0,-100.00,East,99,4.0,8.0,26,0.00,,,0.00,323.000000,,2013-03-21 22:34:00,
2013-03-21 17:43:00,65.0,29.0,-100.00,East,99,4.0,8.0,26,0.00,,,0.00,323.000000,,2013-03-21 22:43:00,
2013-03-21 17:53:00,65.0,29.0,-100.00,East,99,4.0,8.0,26,0.00,,,0.00,323.000000,,2013-03-21 22:53:00,
2013-03-21 18:02:00,65.0,29.0,-100.00,East,99,4.0,8.0,26,0.00,,,0.00,323.000000,,2013-03-21 23:02:00,
2013-03-21 18:33:00,62.0,31.0,-100.00,SSE,147,1.0,7.0,31,0.00,,,0.00,149.000000,,2013-03-21 23:33:00,
2013-03-21 18:43:00,62.0,31.0,-100.00,SSE,147,1.0,7.0,31,0.00,,,0.00,149.000000,,2013-03-21 23:43:00,
2013-03-21 18:53:00,62.0,31.0,-100.00,SSE,147,1.0,7.0,31,0.00,,,0.00,149.000000,,2013-03-21 23:53:00,
2013-03-21 19:03:00,62.0,31.0,-100.00,SSE,147,1.0,7.0,31,0.00,,,0.00,149.000000,,2013-03-22 00:03:00,
2013-03-21 19:32:00,59.0,34.0,-100.00,SE,127,1.0,5.0,39,0.00,,,0.00,35.000000,,2013-03-22 00:32:00,
2013-03-21 19:42:00,59.0,34.0,-100.00,SE,127,1.0,5.0,39,0.00,,,0.00,35.000000,,2013-03-22 00:42:00,
2013-03-21 19:52:00,59.0,34.0,-100.00,SE,127,1.0,5.0,39,0.00,,,0.00,35.000000,,2013-03-22 00:52:00,
2013-03-21 20:02:00,59.0,34.0,-100.00,SE,127,1.0,5.0,39,0.00,,,0.00,35.000000,,2013-03-22 01:02:00,
2013-03-21 20:33:00,55.0,35.0,-100.00,SSE,161,1.0,7.0,47,0.00,,,0.00,1.000000,,2013-03-22 01:33:00,
2013-03-21 20:43:00,55.0,35.0,-100.00,SSE,161,1.0,7.0,47,0.00,,,0.00,1.000000,,2013-03-22 01:43:00,
2013-03-21 20:53:00,55.0,35.0,-100.00,SSE,161,1.0,7.0,47,0.00,,,0.00,1.000000,,2013-03-22 01:53:00,
2013-03-21 21:02:00,55.0,35.0,-100.00,SSE,161,1.0,7.0,47,0.00,,,0.00,1.000000,,2013-03-22 02:02:00,
2013-03-21 21:32:00,52.0,37.0,-100.00,SSW,195,0.0,5.0,57,0.00,,,0.00,0.000000,,2013-03-22 02:32:00,
2013-03-21 21:43:00,52.0,37.0,-100.00,SSW,195,0.0,5.0,57,0.00,,,0.00,0.000000,,2013-03-22 02:43:00,
2013-03-21 21:53:00,52.0,37.0,-100.00,SSW,195,0.0,5.0,57,0.00,,,0.00,0.000000,,2013-03-22 02:53:00,
2013-03-21 22:02:00,52.0,37.0,-100.00,SSW,195,0.0,5.0,57,0.00,,,0.00,0.000000,,2013-03-22 03:02:00,
2013-03-21 22:33:00,51.0,41.0,-100.00,East,99,0.0,3.0,68,0.00,,,-99.99,0.000000,,2013-03-22 03:33:00,
2013-03-21 22:43:00,51.0,41.0,-100.00,East,99,0.0,3.0,68,0.00,,,-99.99,0.000000,,2013-03-22 03:43:00,
2013-03-21 22:53:00,51.0,41.0,-100.00,East,99,0.0,3.0,68,0.00,,,-99.99,0.000000,,2013-03-22 03:53:00,
2013-03-21 23:03:00,51.0,41.0,-100.00,East,99,0.0,3.0,68,0.00,,,-99.99,0.000000,,2013-03-22 04:03:00,
2013-03-21 23:32:00,52.0,41.0,-100.00,SE,125,1.0,3.0,67,0.00,,,0.00,0.000000,,2013-03-22 04:32:00,
2013-03-21 23:43:00,52.0,41.0,-100.00,SE,125,1.0,3.0,67,0.00,,,0.00,0.000000,,2013-03-22 04:43:00,
2013-03-21 23:52:00,52.0,41.0,-100.00,SE,125,1.0,3.0,67,0.00,,,0.00,0.000000,,2013-03-22 04:52:00,